sensor_id;sensor_type;location;lat;lon;timestamp;P1;durP1;ratioP1;P2;durP2;ratioP2
14681;SDS011;7429;52.498;13.480;2023-09-12T00:02:39;17.85;;;15.65;;
14681;SDS011;7429;52.498;13.480;2023-09-12T00:05:49;27.80;;;17.08;;
14681;SDS011;7429;52.498;13.480;2023-09-12T00:08:54;21.55;;;17.42;;
14681;SDS011;7429;52.498;13.480;2023-09-12T00:12:00;19.45;;;17.42;;
14681;SDS011;7429;52.498;13.480;2023-09-12T00:15:03;26.48;;;16.77;;
14681;SDS011;7429;52.498;13.480;2023-09-12T00:18:07;22.38;;;18.80;;
14681;SDS011;7429;52.498;13.480;2023-09-12T00:21:12;24.45;;;18.20;;
14681;SDS011;7429;52.498;13.480;2023-09-12T00:24:15;24.90;;;22.27;;
14681;SDS011;7429;52.498;13.480;2023-09-12T00:27:19;28.38;;;25.67;;
14681;SDS011;7429;52.498;13.480;2023-09-12T00:30:22;31.33;;;28.67;;
14681;SDS011;7429;52.498;13.480;2023-09-12T00:33:26;23.05;;;20.70;;
14681;SDS011;7429;52.498;13.480;2023-09-12T00:36:30;26.58;;;18.88;;
14681;SDS011;7429;52.498;13.480;2023-09-12T00:39:34;25.42;;;19.02;;
14681;SDS011;7429;52.498;13.480;2023-09-12T00:42:38;21.95;;;17.75;;
14681;SDS011;7429;52.498;13.480;2023-09-12T00:45:43;18.40;;;16.23;;
14681;SDS011;7429;52.498;13.480;2023-09-12T00:48:46;20.38;;;17.15;;
14681;SDS011;7429;52.498;13.480;2023-09-12T00:51:51;24.67;;;16.58;;
14681;SDS011;7429;52.498;13.480;2023-09-12T00:54:55;25.80;;;15.77;;
14681;SDS011;7429;52.498;13.480;2023-09-12T00:57:58;25.02;;;17.45;;
14681;SDS011;7429;52.498;13.480;2023-09-12T01:01:05;22.88;;;17.25;;
14681;SDS011;7429;52.498;13.480;2023-09-12T01:04:09;20.15;;;16.85;;
14681;SDS011;7429;52.498;13.480;2023-09-12T01:07:32;21.38;;;16.73;;
14681;SDS011;7429;52.498;13.480;2023-09-12T01:10:35;24.17;;;17.52;;
14681;SDS011;7429;52.498;13.480;2023-09-12T01:13:38;20.63;;;17.45;;
14681;SDS011;7429;52.498;13.480;2023-09-12T01:16:41;22.13;;;18.65;;
14681;SDS011;7429;52.498;13.480;2023-09-12T01:19:44;20.38;;;16.27;;
14681;SDS011;7429;52.498;13.480;2023-09-12T01:22:59;18.70;;;16.50;;
14681;SDS011;7429;52.498;13.480;2023-09-12T01:26:25;23.30;;;16.55;;
14681;SDS011;7429;52.498;13.480;2023-09-12T01:29:42;26.52;;;17.00;;
14681;SDS011;7429;52.498;13.480;2023-09-12T01:32:47;21.02;;;17.52;;
14681;SDS011;7429;52.498;13.480;2023-09-12T01:35:51;22.92;;;19.83;;
14681;SDS011;7429;52.498;13.480;2023-09-12T01:38:55;25.02;;;22.48;;
14681;SDS011;7429;52.498;13.480;2023-09-12T01:41:58;25.05;;;22.63;;
14681;SDS011;7429;52.498;13.480;2023-09-12T01:45:04;25.85;;;23.17;;
14681;SDS011;7429;52.498;13.480;2023-09-12T01:48:11;23.95;;;21.55;;
14681;SDS011;7429;52.498;13.480;2023-09-12T01:51:17;26.60;;;20.88;;
14681;SDS011;7429;52.498;13.480;2023-09-12T01:54:21;23.40;;;17.33;;
14681;SDS011;7429;52.498;13.480;2023-09-12T01:57:25;26.30;;;17.60;;
14681;SDS011;7429;52.498;13.480;2023-09-12T02:00:30;19.90;;;17.05;;
14681;SDS011;7429;52.498;13.480;2023-09-12T02:03:35;23.15;;;17.58;;
14681;SDS011;7429;52.498;13.480;2023-09-12T02:06:38;19.70;;;16.80;;
14681;SDS011;7429;52.498;13.480;2023-09-12T02:09:41;19.77;;;17.27;;
14681;SDS011;7429;52.498;13.480;2023-09-12T02:12:45;24.80;;;19.73;;
14681;SDS011;7429;52.498;13.480;2023-09-12T02:15:49;22.70;;;18.23;;
14681;SDS011;7429;52.498;13.480;2023-09-12T02:18:52;25.05;;;19.35;;
14681;SDS011;7429;52.498;13.480;2023-09-12T02:21:56;21.05;;;18.05;;
14681;SDS011;7429;52.498;13.480;2023-09-12T02:24:59;23.05;;;17.52;;
14681;SDS011;7429;52.498;13.480;2023-09-12T02:28:02;23.98;;;17.38;;
14681;SDS011;7429;52.498;13.480;2023-09-12T02:31:10;26.92;;;20.55;;
14681;SDS011;7429;52.498;13.480;2023-09-12T02:34:14;22.05;;;18.10;;
14681;SDS011;7429;52.498;13.480;2023-09-12T02:37:17;22.17;;;18.00;;
14681;SDS011;7429;52.498;13.480;2023-09-12T02:40:21;19.13;;;16.58;;
14681;SDS011;7429;52.498;13.480;2023-09-12T02:43:24;27.77;;;17.92;;
14681;SDS011;7429;52.498;13.480;2023-09-12T02:46:28;24.50;;;18.70;;
14681;SDS011;7429;52.498;13.480;2023-09-12T02:49:32;19.92;;;17.77;;
14681;SDS011;7429;52.498;13.480;2023-09-12T02:52:35;23.83;;;18.90;;
14681;SDS011;7429;52.498;13.480;2023-09-12T02:55:39;20.63;;;17.67;;
14681;SDS011;7429;52.498;13.480;2023-09-12T02:58:45;25.63;;;17.70;;
14681;SDS011;7429;52.498;13.480;2023-09-12T03:01:50;23.63;;;18.60;;
14681;SDS011;7429;52.498;13.480;2023-09-12T03:04:53;21.63;;;18.05;;
14681;SDS011;7429;52.498;13.480;2023-09-12T03:07:56;22.10;;;17.77;;
14681;SDS011;7429;52.498;13.480;2023-09-12T03:11:00;21.23;;;19.02;;
14681;SDS011;7429;52.498;13.480;2023-09-12T03:14:04;25.42;;;19.50;;
14681;SDS011;7429;52.498;13.480;2023-09-12T03:17:09;22.90;;;20.50;;
14681;SDS011;7429;52.498;13.480;2023-09-12T03:20:12;25.35;;;22.00;;
14681;SDS011;7429;52.498;13.480;2023-09-12T03:23:15;21.15;;;19.02;;
14681;SDS011;7429;52.498;13.480;2023-09-12T03:26:19;21.83;;;19.65;;
14681;SDS011;7429;52.498;13.480;2023-09-12T03:29:22;24.42;;;21.17;;
14681;SDS011;7429;52.498;13.480;2023-09-12T03:32:27;23.00;;;20.65;;
14681;SDS011;7429;52.498;13.480;2023-09-12T03:35:30;26.35;;;19.65;;
14681;SDS011;7429;52.498;13.480;2023-09-12T03:38:35;23.92;;;19.00;;
14681;SDS011;7429;52.498;13.480;2023-09-12T03:41:38;21.27;;;19.05;;
14681;SDS011;7429;52.498;13.480;2023-09-12T03:44:42;21.88;;;19.70;;
14681;SDS011;7429;52.498;13.480;2023-09-12T03:47:46;21.17;;;18.95;;
14681;SDS011;7429;52.498;13.480;2023-09-12T03:50:50;29.85;;;22.42;;
14681;SDS011;7429;52.498;13.480;2023-09-12T03:53:54;21.88;;;19.27;;
14681;SDS011;7429;52.498;13.480;2023-09-12T03:56:58;24.02;;;19.65;;
14681;SDS011;7429;52.498;13.480;2023-09-12T04:00:01;23.15;;;20.00;;
14681;SDS011;7429;52.498;13.480;2023-09-12T04:03:15;23.95;;;21.02;;
14681;SDS011;7429;52.498;13.480;2023-09-12T04:06:19;23.92;;;20.70;;
14681;SDS011;7429;52.498;13.480;2023-09-12T04:09:22;23.00;;;19.63;;
14681;SDS011;7429;52.498;13.480;2023-09-12T04:12:25;20.52;;;18.13;;
14681;SDS011;7429;52.498;13.480;2023-09-12T04:15:28;23.23;;;20.77;;
14681;SDS011;7429;52.498;13.480;2023-09-12T04:18:32;23.73;;;19.77;;
14681;SDS011;7429;52.498;13.480;2023-09-12T04:21:36;25.77;;;21.42;;
14681;SDS011;7429;52.498;13.480;2023-09-12T04:24:39;21.30;;;19.05;;
14681;SDS011;7429;52.498;13.480;2023-09-12T04:27:43;23.08;;;20.73;;
14681;SDS011;7429;52.498;13.480;2023-09-12T04:30:46;22.73;;;20.35;;
14681;SDS011;7429;52.498;13.480;2023-09-12T04:33:51;21.13;;;18.85;;
14681;SDS011;7429;52.498;13.480;2023-09-12T04:36:54;32.30;;;21.95;;
14681;SDS011;7429;52.498;13.480;2023-09-12T04:39:59;27.30;;;22.17;;
14681;SDS011;7429;52.498;13.480;2023-09-12T04:43:02;27.70;;;24.70;;
14681;SDS011;7429;52.498;13.480;2023-09-12T04:46:06;27.00;;;24.30;;
14681;SDS011;7429;52.498;13.480;2023-09-12T04:49:10;27.52;;;24.60;;
14681;SDS011;7429;52.498;13.480;2023-09-12T04:52:13;24.55;;;22.08;;
14681;SDS011;7429;52.498;13.480;2023-09-12T04:55:17;23.00;;;20.73;;
14681;SDS011;7429;52.498;13.480;2023-09-12T04:58:20;24.02;;;20.83;;
14681;SDS011;7429;52.498;13.480;2023-09-12T05:01:23;25.50;;;21.77;;
14681;SDS011;7429;52.498;13.480;2023-09-12T05:04:29;28.65;;;21.55;;
14681;SDS011;7429;52.498;13.480;2023-09-12T05:07:32;27.77;;;24.90;;
14681;SDS011;7429;52.498;13.480;2023-09-12T05:10:37;30.85;;;27.73;;
14681;SDS011;7429;52.498;13.480;2023-09-12T05:13:41;26.88;;;23.98;;
14681;SDS011;7429;52.498;13.480;2023-09-12T05:16:44;24.13;;;21.73;;
14681;SDS011;7429;52.498;13.480;2023-09-12T05:19:49;26.42;;;23.52;;
14681;SDS011;7429;52.498;13.480;2023-09-12T05:22:52;28.55;;;25.73;;
14681;SDS011;7429;52.498;13.480;2023-09-12T05:25:55;27.50;;;24.60;;
14681;SDS011;7429;52.498;13.480;2023-09-12T05:28:58;28.05;;;25.17;;
14681;SDS011;7429;52.498;13.480;2023-09-12T05:32:01;33.28;;;29.55;;
14681;SDS011;7429;52.498;13.480;2023-09-12T05:35:07;35.53;;;32.65;;
14681;SDS011;7429;52.498;13.480;2023-09-12T05:38:23;27.27;;;23.50;;
14681;SDS011;7429;52.498;13.480;2023-09-12T05:41:26;26.10;;;23.17;;
14681;SDS011;7429;52.498;13.480;2023-09-12T05:44:29;27.80;;;22.63;;
14681;SDS011;7429;52.498;13.480;2023-09-12T05:47:32;29.45;;;22.67;;
14681;SDS011;7429;52.498;13.480;2023-09-12T05:50:37;26.95;;;22.80;;
14681;SDS011;7429;52.498;13.480;2023-09-12T05:53:40;23.52;;;20.58;;
14681;SDS011;7429;52.498;13.480;2023-09-12T05:56:43;23.90;;;21.33;;
14681;SDS011;7429;52.498;13.480;2023-09-12T05:59:49;30.45;;;23.25;;
14681;SDS011;7429;52.498;13.480;2023-09-12T06:02:52;23.92;;;21.48;;
14681;SDS011;7429;52.498;13.480;2023-09-12T06:05:58;25.00;;;22.45;;
14681;SDS011;7429;52.498;13.480;2023-09-12T06:09:01;33.03;;;21.58;;
14681;SDS011;7429;52.498;13.480;2023-09-12T06:12:05;29.13;;;20.67;;
14681;SDS011;7429;52.498;13.480;2023-09-12T06:15:09;27.58;;;24.30;;
14681;SDS011;7429;52.498;13.480;2023-09-12T06:18:13;32.45;;;24.52;;
14681;SDS011;7429;52.498;13.480;2023-09-12T06:21:17;25.80;;;21.35;;
14681;SDS011;7429;52.498;13.480;2023-09-12T06:24:20;23.77;;;20.10;;
14681;SDS011;7429;52.498;13.480;2023-09-12T06:27:25;27.20;;;20.20;;
14681;SDS011;7429;52.498;13.480;2023-09-12T06:30:28;23.40;;;20.95;;
14681;SDS011;7429;52.498;13.480;2023-09-12T06:33:31;24.42;;;20.27;;
14681;SDS011;7429;52.498;13.480;2023-09-12T06:36:36;28.42;;;22.27;;
14681;SDS011;7429;52.498;13.480;2023-09-12T06:39:43;28.05;;;25.02;;
14681;SDS011;7429;52.498;13.480;2023-09-12T06:42:46;25.13;;;20.95;;
14681;SDS011;7429;52.498;13.480;2023-09-12T06:45:49;25.98;;;20.95;;
14681;SDS011;7429;52.498;13.480;2023-09-12T06:48:52;23.75;;;21.35;;
14681;SDS011;7429;52.498;13.480;2023-09-12T06:51:57;35.42;;;22.05;;
14681;SDS011;7429;52.498;13.480;2023-09-12T06:55:01;32.10;;;21.65;;
14681;SDS011;7429;52.498;13.480;2023-09-12T06:58:04;29.23;;;22.90;;
14681;SDS011;7429;52.498;13.480;2023-09-12T07:01:07;29.08;;;20.40;;
14681;SDS011;7429;52.498;13.480;2023-09-12T07:04:10;27.73;;;20.13;;
14681;SDS011;7429;52.498;13.480;2023-09-12T07:07:15;27.25;;;20.17;;
14681;SDS011;7429;52.498;13.480;2023-09-12T07:10:18;32.00;;;19.30;;
14681;SDS011;7429;52.498;13.480;2023-09-12T07:13:28;27.30;;;17.02;;
14681;SDS011;7429;52.498;13.480;2023-09-12T07:16:35;27.55;;;16.50;;
14681;SDS011;7429;52.498;13.480;2023-09-12T07:19:39;26.38;;;16.27;;
14681;SDS011;7429;52.498;13.480;2023-09-12T07:22:45;25.95;;;17.35;;
14681;SDS011;7429;52.498;13.480;2023-09-12T07:25:48;26.60;;;17.13;;
14681;SDS011;7429;52.498;13.480;2023-09-12T07:28:52;22.85;;;16.17;;
14681;SDS011;7429;52.498;13.480;2023-09-12T07:31:55;34.65;;;17.77;;
14681;SDS011;7429;52.498;13.480;2023-09-12T07:35:01;30.10;;;15.13;;
14681;SDS011;7429;52.498;13.480;2023-09-12T07:38:06;24.75;;;15.50;;
14681;SDS011;7429;52.498;13.480;2023-09-12T07:41:10;20.70;;;14.57;;
14681;SDS011;7429;52.498;13.480;2023-09-12T07:44:13;26.38;;;15.38;;
14681;SDS011;7429;52.498;13.480;2023-09-12T07:47:16;25.75;;;14.63;;
14681;SDS011;7429;52.498;13.480;2023-09-12T07:50:20;22.10;;;13.68;;
14681;SDS011;7429;52.498;13.480;2023-09-12T07:53:24;25.88;;;15.02;;
14681;SDS011;7429;52.498;13.480;2023-09-12T07:56:28;26.23;;;23.75;;
14681;SDS011;7429;52.498;13.480;2023-09-12T07:59:31;20.27;;;14.73;;
14681;SDS011;7429;52.498;13.480;2023-09-12T08:02:36;21.05;;;12.48;;
14681;SDS011;7429;52.498;13.480;2023-09-12T08:05:39;19.33;;;12.57;;
14681;SDS011;7429;52.498;13.480;2023-09-12T08:08:43;18.80;;;12.02;;
14681;SDS011;7429;52.498;13.480;2023-09-12T08:11:47;19.52;;;13.02;;
14681;SDS011;7429;52.498;13.480;2023-09-12T08:14:50;32.55;;;13.10;;
14681;SDS011;7429;52.498;13.480;2023-09-12T08:17:53;19.98;;;12.88;;
14681;SDS011;7429;52.498;13.480;2023-09-12T08:20:57;24.48;;;11.88;;
14681;SDS011;7429;52.498;13.480;2023-09-12T08:24:02;22.95;;;12.95;;
14681;SDS011;7429;52.498;13.480;2023-09-12T08:27:06;20.00;;;11.38;;
14681;SDS011;7429;52.498;13.480;2023-09-12T08:30:10;15.82;;;11.27;;
14681;SDS011;7429;52.498;13.480;2023-09-12T08:33:15;15.48;;;10.18;;
14681;SDS011;7429;52.498;13.480;2023-09-12T08:36:18;23.63;;;11.82;;
14681;SDS011;7429;52.498;13.480;2023-09-12T08:39:24;19.80;;;11.55;;
14681;SDS011;7429;52.498;13.480;2023-09-12T08:42:29;19.13;;;10.02;;
14681;SDS011;7429;52.498;13.480;2023-09-12T08:45:33;18.58;;;9.90;;
14681;SDS011;7429;52.498;13.480;2023-09-12T08:48:38;19.83;;;9.35;;
14681;SDS011;7429;52.498;13.480;2023-09-12T08:51:43;19.58;;;9.10;;
14681;SDS011;7429;52.498;13.480;2023-09-12T08:54:48;19.67;;;9.95;;
14681;SDS011;7429;52.498;13.480;2023-09-12T08:57:51;20.08;;;10.88;;
14681;SDS011;7429;52.498;13.480;2023-09-12T09:00:57;21.55;;;8.90;;
14681;SDS011;7429;52.498;13.480;2023-09-12T09:04:02;20.13;;;8.60;;
14681;SDS011;7429;52.498;13.480;2023-09-12T09:07:06;13.68;;;8.75;;
14681;SDS011;7429;52.498;13.480;2023-09-12T09:10:15;14.95;;;7.75;;
14681;SDS011;7429;52.498;13.480;2023-09-12T09:13:29;22.35;;;8.25;;
14681;SDS011;7429;52.498;13.480;2023-09-12T09:16:33;17.55;;;9.52;;
14681;SDS011;7429;52.498;13.480;2023-09-12T09:19:40;18.17;;;8.13;;
14681;SDS011;7429;52.498;13.480;2023-09-12T09:22:48;16.13;;;8.43;;
14681;SDS011;7429;52.498;13.480;2023-09-12T09:26:00;14.02;;;6.65;;
14681;SDS011;7429;52.498;13.480;2023-09-12T09:29:05;14.38;;;7.47;;
14681;SDS011;7429;52.498;13.480;2023-09-12T09:32:10;16.50;;;6.97;;
14681;SDS011;7429;52.498;13.480;2023-09-12T09:35:20;16.52;;;7.10;;
14681;SDS011;7429;52.498;13.480;2023-09-12T09:38:23;17.65;;;7.10;;
14681;SDS011;7429;52.498;13.480;2023-09-12T09:41:28;21.85;;;7.47;;
14681;SDS011;7429;52.498;13.480;2023-09-12T09:44:31;18.58;;;8.13;;
14681;SDS011;7429;52.498;13.480;2023-09-12T09:47:35;16.50;;;7.07;;
14681;SDS011;7429;52.498;13.480;2023-09-12T09:50:38;21.27;;;7.50;;
14681;SDS011;7429;52.498;13.480;2023-09-12T09:53:41;25.30;;;8.07;;
14681;SDS011;7429;52.498;13.480;2023-09-12T09:56:46;24.35;;;9.60;;
14681;SDS011;7429;52.498;13.480;2023-09-12T09:59:52;21.00;;;8.68;;
14681;SDS011;7429;52.498;13.480;2023-09-12T10:02:56;17.83;;;9.55;;
14681;SDS011;7429;52.498;13.480;2023-09-12T10:06:03;14.75;;;7.88;;
14681;SDS011;7429;52.498;13.480;2023-09-12T10:09:09;18.20;;;9.60;;
14681;SDS011;7429;52.498;13.480;2023-09-12T10:12:15;15.60;;;8.60;;
14681;SDS011;7429;52.498;13.480;2023-09-12T10:15:19;14.80;;;9.50;;
14681;SDS011;7429;52.498;13.480;2023-09-12T10:18:23;20.20;;;10.77;;
14681;SDS011;7429;52.498;13.480;2023-09-12T10:21:31;17.63;;;8.68;;
14681;SDS011;7429;52.498;13.480;2023-09-12T10:24:37;17.45;;;10.27;;
14681;SDS011;7429;52.498;13.480;2023-09-12T10:27:44;15.05;;;9.50;;
14681;SDS011;7429;52.498;13.480;2023-09-12T10:30:48;18.25;;;10.25;;
14681;SDS011;7429;52.498;13.480;2023-09-12T10:33:52;16.88;;;10.45;;
14681;SDS011;7429;52.498;13.480;2023-09-12T10:36:56;21.05;;;10.35;;
14681;SDS011;7429;52.498;13.480;2023-09-12T10:40:01;24.00;;;10.18;;
14681;SDS011;7429;52.498;13.480;2023-09-12T10:43:10;19.63;;;9.43;;
14681;SDS011;7429;52.498;13.480;2023-09-12T10:46:14;17.10;;;9.65;;
14681;SDS011;7429;52.498;13.480;2023-09-12T10:49:17;14.98;;;8.77;;
14681;SDS011;7429;52.498;13.480;2023-09-12T10:52:23;15.20;;;8.20;;
14681;SDS011;7429;52.498;13.480;2023-09-12T10:55:27;16.17;;;7.93;;
14681;SDS011;7429;52.498;13.480;2023-09-12T10:58:32;18.83;;;7.90;;
14681;SDS011;7429;52.498;13.480;2023-09-12T11:01:36;18.83;;;7.55;;
14681;SDS011;7429;52.498;13.480;2023-09-12T11:04:41;15.63;;;7.55;;
14681;SDS011;7429;52.498;13.480;2023-09-12T11:07:44;15.35;;;8.00;;
14681;SDS011;7429;52.498;13.480;2023-09-12T11:14:23;18.70;;;7.63;;
14681;SDS011;7429;52.498;13.480;2023-09-12T11:17:27;18.55;;;8.15;;
14681;SDS011;7429;52.498;13.480;2023-09-12T11:20:50;19.92;;;9.07;;
14681;SDS011;7429;52.498;13.480;2023-09-12T11:23:58;13.45;;;7.20;;
14681;SDS011;7429;52.498;13.480;2023-09-12T11:27:02;16.75;;;7.90;;
14681;SDS011;7429;52.498;13.480;2023-09-12T11:30:11;20.00;;;7.80;;
14681;SDS011;7429;52.498;13.480;2023-09-12T11:33:15;19.83;;;8.70;;
14681;SDS011;7429;52.498;13.480;2023-09-12T11:36:19;13.57;;;9.18;;
14681;SDS011;7429;52.498;13.480;2023-09-12T11:39:22;19.67;;;9.02;;
14681;SDS011;7429;52.498;13.480;2023-09-12T11:42:27;22.65;;;11.48;;
14681;SDS011;7429;52.498;13.480;2023-09-12T11:45:31;18.92;;;8.98;;
14681;SDS011;7429;52.498;13.480;2023-09-12T11:48:36;20.73;;;8.68;;
14681;SDS011;7429;52.498;13.480;2023-09-12T11:51:45;16.00;;;8.18;;
14681;SDS011;7429;52.498;13.480;2023-09-12T11:54:50;16.17;;;7.47;;
14681;SDS011;7429;52.498;13.480;2023-09-12T11:57:54;24.23;;;9.38;;
14681;SDS011;7429;52.498;13.480;2023-09-12T12:00:58;19.67;;;8.55;;
14681;SDS011;7429;52.498;13.480;2023-09-12T12:04:03;20.75;;;8.38;;
14681;SDS011;7429;52.498;13.480;2023-09-12T12:07:08;16.15;;;9.05;;
14681;SDS011;7429;52.498;13.480;2023-09-12T12:10:13;14.73;;;7.30;;
14681;SDS011;7429;52.498;13.480;2023-09-12T12:13:16;20.33;;;7.53;;
14681;SDS011;7429;52.498;13.480;2023-09-12T12:16:21;11.60;;;7.00;;
14681;SDS011;7429;52.498;13.480;2023-09-12T12:19:27;15.45;;;7.72;;
14681;SDS011;7429;52.498;13.480;2023-09-12T12:22:33;11.10;;;6.60;;
14681;SDS011;7429;52.498;13.480;2023-09-12T12:25:36;16.20;;;6.90;;
14681;SDS011;7429;52.498;13.480;2023-09-12T12:28:40;15.00;;;7.50;;
14681;SDS011;7429;52.498;13.480;2023-09-12T12:31:45;17.33;;;7.35;;
14681;SDS011;7429;52.498;13.480;2023-09-12T12:34:48;18.20;;;7.65;;
14681;SDS011;7429;52.498;13.480;2023-09-12T12:38:11;16.42;;;7.50;;
14681;SDS011;7429;52.498;13.480;2023-09-12T12:41:15;12.63;;;7.40;;
14681;SDS011;7429;52.498;13.480;2023-09-12T12:44:32;12.68;;;6.82;;
14681;SDS011;7429;52.498;13.480;2023-09-12T12:47:43;14.23;;;8.20;;
14681;SDS011;7429;52.498;13.480;2023-09-12T12:50:47;13.88;;;7.68;;
14681;SDS011;7429;52.498;13.480;2023-09-12T12:53:51;13.50;;;7.57;;
14681;SDS011;7429;52.498;13.480;2023-09-12T12:56:55;13.00;;;6.78;;
14681;SDS011;7429;52.498;13.480;2023-09-12T12:59:59;14.52;;;7.45;;
14681;SDS011;7429;52.498;13.480;2023-09-12T13:03:06;17.30;;;7.22;;
14681;SDS011;7429;52.498;13.480;2023-09-12T13:06:10;13.90;;;6.45;;
14681;SDS011;7429;52.498;13.480;2023-09-12T13:09:17;12.43;;;7.68;;
14681;SDS011;7429;52.498;13.480;2023-09-12T13:12:20;10.68;;;6.45;;
14681;SDS011;7429;52.498;13.480;2023-09-12T13:15:23;12.10;;;6.28;;
14681;SDS011;7429;52.498;13.480;2023-09-12T13:18:28;11.73;;;6.25;;
14681;SDS011;7429;52.498;13.480;2023-09-12T13:21:32;11.55;;;6.05;;
14681;SDS011;7429;52.498;13.480;2023-09-12T13:24:39;11.63;;;6.15;;
14681;SDS011;7429;52.498;13.480;2023-09-12T13:27:42;15.90;;;6.90;;
14681;SDS011;7429;52.498;13.480;2023-09-12T13:30:46;12.88;;;6.15;;
14681;SDS011;7429;52.498;13.480;2023-09-12T13:33:50;16.83;;;6.95;;
14681;SDS011;7429;52.498;13.480;2023-09-12T13:36:54;12.68;;;6.53;;
14681;SDS011;7429;52.498;13.480;2023-09-12T13:40:12;12.65;;;7.20;;
14681;SDS011;7429;52.498;13.480;2023-09-12T13:43:15;11.90;;;7.55;;
14681;SDS011;7429;52.498;13.480;2023-09-12T13:46:18;8.80;;;6.32;;
14681;SDS011;7429;52.498;13.480;2023-09-12T13:49:23;17.40;;;7.78;;
14681;SDS011;7429;52.498;13.480;2023-09-12T13:52:26;14.15;;;6.90;;
14681;SDS011;7429;52.498;13.480;2023-09-12T13:55:29;12.05;;;6.72;;
14681;SDS011;7429;52.498;13.480;2023-09-12T13:58:36;14.98;;;5.85;;
14681;SDS011;7429;52.498;13.480;2023-09-12T14:01:40;13.55;;;6.93;;
14681;SDS011;7429;52.498;13.480;2023-09-12T14:04:45;8.77;;;5.70;;
14681;SDS011;7429;52.498;13.480;2023-09-12T14:07:52;16.70;;;5.65;;
14681;SDS011;7429;52.498;13.480;2023-09-12T14:10:56;12.98;;;6.22;;
14681;SDS011;7429;52.498;13.480;2023-09-12T14:14:00;17.85;;;6.80;;
14681;SDS011;7429;52.498;13.480;2023-09-12T14:17:17;10.15;;;7.15;;
14681;SDS011;7429;52.498;13.480;2023-09-12T14:20:22;13.07;;;6.35;;
14681;SDS011;7429;52.498;13.480;2023-09-12T14:23:26;13.75;;;6.70;;
14681;SDS011;7429;52.498;13.480;2023-09-12T14:26:30;16.52;;;7.95;;
14681;SDS011;7429;52.498;13.480;2023-09-12T14:29:33;10.73;;;6.43;;
14681;SDS011;7429;52.498;13.480;2023-09-12T14:32:37;12.85;;;6.95;;
14681;SDS011;7429;52.498;13.480;2023-09-12T14:35:42;17.23;;;6.97;;
14681;SDS011;7429;52.498;13.480;2023-09-12T14:38:46;13.90;;;6.97;;
14681;SDS011;7429;52.498;13.480;2023-09-12T14:41:50;12.00;;;6.75;;
14681;SDS011;7429;52.498;13.480;2023-09-12T14:44:55;13.45;;;6.45;;
14681;SDS011;7429;52.498;13.480;2023-09-12T14:47:59;14.70;;;6.78;;
14681;SDS011;7429;52.498;13.480;2023-09-12T14:51:05;13.73;;;6.13;;
14681;SDS011;7429;52.498;13.480;2023-09-12T14:54:08;11.82;;;9.10;;
14681;SDS011;7429;52.498;13.480;2023-09-12T14:57:12;22.02;;;7.50;;
14681;SDS011;7429;52.498;13.480;2023-09-12T15:00:15;10.50;;;9.23;;
14681;SDS011;7429;52.498;13.480;2023-09-12T15:03:18;13.90;;;7.82;;
14681;SDS011;7429;52.498;13.480;2023-09-12T15:06:23;22.83;;;6.57;;
14681;SDS011;7429;52.498;13.480;2023-09-12T15:09:26;16.52;;;4.82;;
14681;SDS011;7429;52.498;13.480;2023-09-12T15:12:30;16.40;;;4.53;;
14681;SDS011;7429;52.498;13.480;2023-09-12T15:15:33;13.13;;;4.82;;
14681;SDS011;7429;52.498;13.480;2023-09-12T15:18:37;15.15;;;4.65;;
14681;SDS011;7429;52.498;13.480;2023-09-12T15:21:43;7.40;;;4.07;;
14681;SDS011;7429;52.498;13.480;2023-09-12T15:24:47;6.35;;;3.70;;
14681;SDS011;7429;52.498;13.480;2023-09-12T15:27:50;6.85;;;3.40;;
14681;SDS011;7429;52.498;13.480;2023-09-12T15:30:54;8.23;;;3.60;;
14681;SDS011;7429;52.498;13.480;2023-09-12T15:33:58;7.82;;;4.10;;
14681;SDS011;7429;52.498;13.480;2023-09-12T15:37:07;7.43;;;3.55;;
14681;SDS011;7429;52.498;13.480;2023-09-12T15:40:15;6.55;;;3.97;;
14681;SDS011;7429;52.498;13.480;2023-09-12T15:43:19;6.85;;;4.18;;
14681;SDS011;7429;52.498;13.480;2023-09-12T15:46:26;6.18;;;3.58;;
14681;SDS011;7429;52.498;13.480;2023-09-12T15:49:36;6.60;;;3.53;;
14681;SDS011;7429;52.498;13.480;2023-09-12T15:52:41;9.27;;;8.27;;
14681;SDS011;7429;52.498;13.480;2023-09-12T15:55:44;5.70;;;4.65;;
14681;SDS011;7429;52.498;13.480;2023-09-12T15:58:50;5.50;;;3.72;;
14681;SDS011;7429;52.498;13.480;2023-09-12T16:01:53;7.78;;;3.28;;
14681;SDS011;7429;52.498;13.480;2023-09-12T16:04:57;5.07;;;3.70;;
14681;SDS011;7429;52.498;13.480;2023-09-12T16:08:01;4.45;;;3.50;;
14681;SDS011;7429;52.498;13.480;2023-09-12T16:11:05;9.23;;;4.13;;
14681;SDS011;7429;52.498;13.480;2023-09-12T16:14:08;6.78;;;3.47;;
14681;SDS011;7429;52.498;13.480;2023-09-12T16:17:17;4.72;;;3.50;;
14681;SDS011;7429;52.498;13.480;2023-09-12T16:20:20;6.75;;;3.85;;
14681;SDS011;7429;52.498;13.480;2023-09-12T16:23:25;4.00;;;3.70;;
14681;SDS011;7429;52.498;13.480;2023-09-12T16:26:32;2.92;;;2.70;;
14681;SDS011;7429;52.498;13.480;2023-09-12T16:29:36;7.43;;;3.20;;
14681;SDS011;7429;52.498;13.480;2023-09-12T16:32:52;3.38;;;3.13;;
14681;SDS011;7429;52.498;13.480;2023-09-12T16:35:55;6.90;;;6.30;;
14681;SDS011;7429;52.498;13.480;2023-09-12T16:39:00;3.63;;;3.33;;
14681;SDS011;7429;52.498;13.480;2023-09-12T16:42:03;4.60;;;3.92;;
14681;SDS011;7429;52.498;13.480;2023-09-12T16:45:08;3.80;;;3.35;;
14681;SDS011;7429;52.498;13.480;2023-09-12T16:48:12;3.70;;;3.28;;
14681;SDS011;7429;52.498;13.480;2023-09-12T16:51:15;3.38;;;3.08;;
14681;SDS011;7429;52.498;13.480;2023-09-12T16:54:19;4.63;;;3.00;;
14681;SDS011;7429;52.498;13.480;2023-09-12T16:57:23;3.63;;;3.08;;
14681;SDS011;7429;52.498;13.480;2023-09-12T17:00:29;3.97;;;3.55;;
14681;SDS011;7429;52.498;13.480;2023-09-12T17:03:33;4.70;;;3.72;;
14681;SDS011;7429;52.498;13.480;2023-09-12T17:06:36;4.82;;;3.33;;
14681;SDS011;7429;52.498;13.480;2023-09-12T17:09:41;3.83;;;3.42;;
14681;SDS011;7429;52.498;13.480;2023-09-12T17:12:47;4.13;;;3.35;;
14681;SDS011;7429;52.498;13.480;2023-09-12T17:15:53;4.65;;;3.33;;
14681;SDS011;7429;52.498;13.480;2023-09-12T17:18:57;6.28;;;3.17;;
14681;SDS011;7429;52.498;13.480;2023-09-12T17:22:00;3.47;;;3.10;;
14681;SDS011;7429;52.498;13.480;2023-09-12T17:25:07;4.63;;;2.90;;
14681;SDS011;7429;52.498;13.480;2023-09-12T17:28:11;3.00;;;2.70;;
14681;SDS011;7429;52.498;13.480;2023-09-12T17:31:14;5.32;;;3.13;;
14681;SDS011;7429;52.498;13.480;2023-09-12T17:34:18;3.97;;;2.97;;
14681;SDS011;7429;52.498;13.480;2023-09-12T17:37:21;6.93;;;3.47;;
14681;SDS011;7429;52.498;13.480;2023-09-12T17:40:26;4.57;;;3.80;;
14681;SDS011;7429;52.498;13.480;2023-09-12T17:43:29;4.50;;;4.10;;
14681;SDS011;7429;52.498;13.480;2023-09-12T17:46:38;6.13;;;5.53;;
14681;SDS011;7429;52.498;13.480;2023-09-12T17:49:42;4.95;;;4.45;;
14681;SDS011;7429;52.498;13.480;2023-09-12T17:52:45;4.95;;;4.15;;
14681;SDS011;7429;52.498;13.480;2023-09-12T17:55:51;6.57;;;4.07;;
14681;SDS011;7429;52.498;13.480;2023-09-12T17:58:56;6.97;;;4.70;;
14681;SDS011;7429;52.498;13.480;2023-09-12T18:02:06;4.70;;;4.28;;
14681;SDS011;7429;52.498;13.480;2023-09-12T18:05:09;4.50;;;4.10;;
14681;SDS011;7429;52.498;13.480;2023-09-12T18:08:12;6.05;;;5.63;;
14681;SDS011;7429;52.498;13.480;2023-09-12T18:11:17;4.35;;;3.95;;
14681;SDS011;7429;52.498;13.480;2023-09-12T18:14:21;8.07;;;4.03;;
14681;SDS011;7429;52.498;13.480;2023-09-12T18:17:24;6.55;;;5.00;;